UAE6MR MMSM-KIAH
Flight info
| Callsign | UAE6MR |
|---|---|
| Flight time | 1h 38m |
| Altitude | 35000 |
| Route | IKLAN2D IKLAN UT139 ONGOB UJ35 MAM/N0474F360 DCT CRP/N0470F350 DCT LMEDA HTOWN3 |
| Aircraft | B77L/H-SDE1E2E3FGHIJ2J3J4J5M1RWXY/LB1D1 |
Departure
| Time | 2026-04-22 20:46 |
|---|---|
| Airport | Felipe Ángeles International Airport (MMSM) |
Arrival
| Time | 2026-04-22 22:25 |
|---|---|
| Airport | George Bush Intercontinental Airport (KIAH) |
| Time | Latitude | Longitude | Altitude | Speed | Heading |
|---|---|---|---|---|---|
| 2026-04-22 20:23 | 19.75593 | -99.00605 | 7381 ft | 0 kts | 140° |
| 2026-04-22 20:35 | 19.75608 | -99.00618 | 7380 ft | 4 kts | 143° |
| 2026-04-22 20:35 | 19.75630 | -99.00634 | 7380 ft | 4 kts | 149° |
| 2026-04-22 20:36 | 19.75654 | -99.00648 | 7380 ft | 4 kts | 159° |
| 2026-04-22 20:36 | 19.75680 | -99.00654 | 7380 ft | 4 kts | 188° |
| 2026-04-22 20:36 | 19.75695 | -99.00648 | 7380 ft | 0 kts | 229° |
| 2026-04-22 20:38 | 19.75688 | -99.00657 | 7381 ft | 5 kts | 229° |
| 2026-04-22 20:38 | 19.75643 | -99.00710 | 7382 ft | 14 kts | 228° |
| 2026-04-22 20:38 | 19.75576 | -99.00791 | 7381 ft | 15 kts | 229° |
| 2026-04-22 20:39 | 19.75510 | -99.00874 | 7382 ft | 15 kts | 229° |
| 2026-04-22 20:39 | 19.75450 | -99.00961 | 7382 ft | 15 kts | 256° |
| 2026-04-22 20:39 | 19.75502 | -99.01047 | 7381 ft | 15 kts | 320° |
| 2026-04-22 20:39 | 19.75507 | -99.01142 | 7381 ft | 15 kts | 231° |
| 2026-04-22 20:40 | 19.75438 | -99.01224 | 7381 ft | 15 kts | 229° |
| 2026-04-22 20:40 | 19.75371 | -99.01307 | 7381 ft | 15 kts | 229° |
| 2026-04-22 20:40 | 19.75303 | -99.01389 | 7381 ft | 15 kts | 229° |
| 2026-04-22 20:40 | 19.75236 | -99.01472 | 7382 ft | 15 kts | 229° |
| 2026-04-22 20:41 | 19.75169 | -99.01554 | 7382 ft | 15 kts | 229° |
| 2026-04-22 20:41 | 19.75100 | -99.01638 | 7382 ft | 17 kts | 229° |
| 2026-04-22 20:41 | 19.75000 | -99.01760 | 7382 ft | 27 kts | 229° |
| 2026-04-22 20:41 | 19.74871 | -99.01918 | 7381 ft | 29 kts | 229° |
| 2026-04-22 20:42 | 19.74740 | -99.02078 | 7381 ft | 29 kts | 229° |
| 2026-04-22 20:42 | 19.74610 | -99.02238 | 7381 ft | 29 kts | 228° |
| 2026-04-22 20:42 | 19.74479 | -99.02396 | 7381 ft | 29 kts | 229° |
| 2026-04-22 20:42 | 19.74348 | -99.02556 | 7382 ft | 29 kts | 229° |
| 2026-04-22 20:43 | 19.74218 | -99.02716 | 7382 ft | 29 kts | 229° |
| 2026-04-22 20:43 | 19.74087 | -99.02875 | 7382 ft | 29 kts | 229° |
| 2026-04-22 20:43 | 19.73956 | -99.03034 | 7381 ft | 29 kts | 229° |
| 2026-04-22 20:43 | 19.73825 | -99.03193 | 7381 ft | 29 kts | 229° |
| 2026-04-22 20:44 | 19.73695 | -99.03353 | 7381 ft | 29 kts | 229° |
| 2026-04-22 20:44 | 19.73565 | -99.03513 | 7381 ft | 29 kts | 229° |
| 2026-04-22 20:44 | 19.73445 | -99.03661 | 7382 ft | 23 kts | 229° |
| 2026-04-22 20:44 | 19.73371 | -99.03756 | 7382 ft | 12 kts | 244° |
| 2026-04-22 20:45 | 19.73402 | -99.03834 | 7381 ft | 12 kts | 316° |
| 2026-04-22 20:45 | 19.73472 | -99.03878 | 7381 ft | 12 kts | 13° |
| 2026-04-22 20:45 | 19.73557 | -99.03786 | 7381 ft | 33 kts | 49° |
| 2026-04-22 20:45 | 19.73877 | -99.03397 | 7379 ft | 107 kts | 49° |
| 2026-04-22 20:46 | 19.75397 | -99.01540 | 7468 ft | 207 kts | 50° |
| 2026-04-22 20:46 | 19.76312 | -99.00376 | 8224 ft | 206 kts | 48° |
| 2026-04-22 20:46 | 19.77273 | -98.99181 | 8602 ft | 220 kts | 47° |
| 2026-04-22 20:47 | 19.78319 | -98.97915 | 8731 ft | 237 kts | 43° |
| 2026-04-22 20:47 | 19.79629 | -98.96765 | 8932 ft | 246 kts | 30° |
| 2026-04-22 20:47 | 19.81114 | -98.95772 | 9158 ft | 267 kts | 29° |
| 2026-04-22 20:47 | 19.82739 | -98.94676 | 9461 ft | 286 kts | 30° |
| 2026-04-22 20:48 | 19.84416 | -98.93497 | 10138 ft | 291 kts | 32° |
| 2026-04-22 20:48 | 19.86136 | -98.92260 | 10458 ft | 309 kts | 32° |
| 2026-04-22 20:48 | 19.87984 | -98.90920 | 10570 ft | 333 kts | 33° |
| 2026-04-22 20:48 | 19.89971 | -98.89527 | 10691 ft | 349 kts | 26° |
| 2026-04-22 20:49 | 19.92353 | -98.88829 | 10899 ft | 365 kts | 359° |
| 2026-04-22 20:49 | 19.94835 | -98.89340 | 11570 ft | 364 kts | 338° |
| 2026-04-22 20:49 | 19.97210 | -98.90213 | 12003 ft | 364 kts | 349° |
| 2026-04-22 20:49 | 19.99782 | -98.90334 | 12501 ft | 374 kts | 1° |
| 2026-04-22 20:50 | 20.02398 | -98.90130 | 13047 ft | 382 kts | 2° |
| 2026-04-22 20:50 | 20.05078 | -98.89901 | 13615 ft | 389 kts | 1° |
| 2026-04-22 20:50 | 20.07804 | -98.89733 | 14149 ft | 396 kts | 1° |
| 2026-04-22 20:50 | 20.10559 | -98.89631 | 14870 ft | 396 kts | 358° |
| 2026-04-22 20:51 | 20.13306 | -98.89566 | 15646 ft | 396 kts | 358° |
| 2026-04-22 20:51 | 20.16068 | -98.89508 | 16283 ft | 400 kts | 359° |
| 2026-04-22 20:51 | 20.18871 | -98.89447 | 16877 ft | 404 kts | 358° |
| 2026-04-22 20:51 | 20.21679 | -98.89381 | 17616 ft | 405 kts | 359° |
| 2026-04-22 20:52 | 20.24517 | -98.89312 | 18199 ft | 410 kts | 358° |
| 2026-04-22 20:52 | 20.27380 | -98.89268 | 18750 ft | 413 kts | 358° |
| 2026-04-22 20:52 | 20.30266 | -98.89242 | 19300 ft | 416 kts | 358° |
| 2026-04-22 20:52 | 20.33173 | -98.89214 | 19862 ft | 419 kts | 358° |
| 2026-04-22 20:53 | 20.36100 | -98.89184 | 20413 ft | 422 kts | 358° |
| 2026-04-22 20:53 | 20.39047 | -98.89152 | 20933 ft | 426 kts | 358° |
| 2026-04-22 20:53 | 20.42017 | -98.89119 | 21496 ft | 428 kts | 358° |
| 2026-04-22 20:53 | 20.45007 | -98.88995 | 21985 ft | 433 kts | 2° |
| 2026-04-22 20:54 | 20.48015 | -98.88588 | 22471 ft | 438 kts | 6° |
| 2026-04-22 20:54 | 20.51031 | -98.88038 | 22984 ft | 441 kts | 7° |
| 2026-04-22 20:54 | 20.54058 | -98.87440 | 23479 ft | 445 kts | 7° |
| 2026-04-22 20:54 | 20.57114 | -98.86842 | 23889 ft | 448 kts | 7° |
| 2026-04-22 20:55 | 20.60196 | -98.86255 | 24301 ft | 451 kts | 6° |
| 2026-04-22 20:55 | 20.63299 | -98.85686 | 24752 ft | 453 kts | 6° |
| 2026-04-22 20:55 | 20.66381 | -98.85135 | 25168 ft | 456 kts | 5° |
| 2026-04-22 20:55 | 20.69516 | -98.84586 | 25638 ft | 458 kts | 5° |
| 2026-04-22 20:56 | 20.72668 | -98.84040 | 26110 ft | 460 kts | 5° |
| 2026-04-22 20:56 | 20.75881 | -98.83487 | 26561 ft | 463 kts | 5° |
| 2026-04-22 20:56 | 20.79032 | -98.82943 | 27016 ft | 466 kts | 5° |
| 2026-04-22 20:56 | 20.82240 | -98.82390 | 27481 ft | 468 kts | 5° |
| 2026-04-22 20:57 | 20.85465 | -98.81832 | 27956 ft | 471 kts | 5° |
| 2026-04-22 20:57 | 20.88718 | -98.81269 | 28346 ft | 476 kts | 5° |
| 2026-04-22 20:57 | 20.92001 | -98.80701 | 28770 ft | 480 kts | 5° |
| 2026-04-22 20:57 | 20.95292 | -98.80126 | 29380 ft | 479 kts | 4° |
| 2026-04-22 20:58 | 20.98586 | -98.79553 | 29914 ft | 480 kts | 4° |
| 2026-04-22 20:58 | 21.01891 | -98.78978 | 30344 ft | 482 kts | 4° |
| 2026-04-22 20:58 | 21.05195 | -98.78404 | 30879 ft | 480 kts | 4° |
| 2026-04-22 20:58 | 21.08487 | -98.77830 | 31394 ft | 479 kts | 4° |
| 2026-04-22 20:59 | 21.11792 | -98.77257 | 31705 ft | 482 kts | 4° |
| 2026-04-22 20:59 | 21.15095 | -98.76681 | 32281 ft | 478 kts | 4° |
| 2026-04-22 20:59 | 21.18362 | -98.76109 | 32869 ft | 474 kts | 4° |
| 2026-04-22 20:59 | 21.21614 | -98.75541 | 33383 ft | 472 kts | 4° |
| 2026-04-22 21:00 | 21.24846 | -98.74977 | 33831 ft | 472 kts | 4° |
| 2026-04-22 21:00 | 21.28092 | -98.74412 | 34188 ft | 472 kts | 4° |
| 2026-04-22 21:00 | 21.31334 | -98.73848 | 34510 ft | 472 kts | 4° |
| 2026-04-22 21:00 | 21.34582 | -98.73282 | 34809 ft | 473 kts | 4° |
| 2026-04-22 21:01 | 21.41140 | -98.72141 | 34892 ft | 478 kts | 4° |
| 2026-04-22 21:01 | 21.47670 | -98.70997 | 34901 ft | 473 kts | 4° |
| 2026-04-22 21:02 | 21.54158 | -98.69860 | 34902 ft | 472 kts | 4° |
| 2026-04-22 21:02 | 21.60628 | -98.68727 | 34909 ft | 471 kts | 4° |
| 2026-04-22 21:03 | 21.67080 | -98.67596 | 34896 ft | 469 kts | 4° |
| 2026-04-22 21:03 | 21.73523 | -98.66466 | 34904 ft | 469 kts | 4° |
| 2026-04-22 21:04 | 21.79953 | -98.65338 | 34888 ft | 469 kts | 4° |
| 2026-04-22 21:04 | 21.86394 | -98.64206 | 34891 ft | 469 kts | 4° |
| 2026-04-22 21:05 | 21.92830 | -98.63073 | 34899 ft | 469 kts | 3° |
| 2026-04-22 21:05 | 21.99274 | -98.61939 | 34893 ft | 469 kts | 3° |
| 2026-04-22 21:06 | 22.05713 | -98.60804 | 34888 ft | 469 kts | 3° |
| 2026-04-22 21:06 | 22.12141 | -98.59670 | 34890 ft | 468 kts | 3° |
| 2026-04-22 21:07 | 22.18529 | -98.58542 | 34888 ft | 468 kts | 3° |
| 2026-04-22 21:07 | 22.24947 | -98.57408 | 34913 ft | 467 kts | 3° |
| 2026-04-22 21:08 | 22.31363 | -98.56270 | 34898 ft | 467 kts | 3° |
| 2026-04-22 21:08 | 22.37770 | -98.55130 | 34894 ft | 466 kts | 3° |
| 2026-04-22 21:09 | 22.44172 | -98.54002 | 34888 ft | 466 kts | 3° |
| 2026-04-22 21:09 | 22.50566 | -98.52870 | 34893 ft | 465 kts | 3° |
| 2026-04-22 21:10 | 22.56961 | -98.51735 | 34914 ft | 465 kts | 3° |
| 2026-04-22 21:10 | 22.63351 | -98.50599 | 34908 ft | 465 kts | 3° |
| 2026-04-22 21:11 | 22.69729 | -98.49463 | 34900 ft | 464 kts | 3° |
| 2026-04-22 21:11 | 22.76103 | -98.48328 | 34907 ft | 464 kts | 3° |
| 2026-04-22 21:12 | 22.82465 | -98.47194 | 34907 ft | 463 kts | 3° |
| 2026-04-22 21:12 | 22.88821 | -98.46060 | 34947 ft | 463 kts | 3° |
| 2026-04-22 21:13 | 22.94114 | -98.45116 | 34928 ft | 463 kts | 3° |
| 2026-04-22 21:13 | 23.00477 | -98.43979 | 34916 ft | 463 kts | 3° |
| 2026-04-22 21:14 | 23.06838 | -98.42841 | 34936 ft | 464 kts | 3° |
| 2026-04-22 21:14 | 23.13203 | -98.41701 | 34936 ft | 464 kts | 3° |
| 2026-04-22 21:15 | 23.19580 | -98.40558 | 34942 ft | 464 kts | 3° |
| 2026-04-22 21:15 | 23.25970 | -98.39401 | 34931 ft | 468 kts | 4° |
| 2026-04-22 21:16 | 23.32306 | -98.37640 | 34938 ft | 472 kts | 11° |
| 2026-04-22 21:16 | 23.38557 | -98.35463 | 34927 ft | 471 kts | 11° |
| 2026-04-22 21:17 | 23.44792 | -98.33278 | 34930 ft | 471 kts | 11° |
| 2026-04-22 21:17 | 23.51033 | -98.31123 | 34930 ft | 470 kts | 11° |
| 2026-04-22 21:18 | 23.57285 | -98.28982 | 34932 ft | 471 kts | 11° |
| 2026-04-22 21:18 | 23.63535 | -98.26840 | 34921 ft | 471 kts | 11° |
| 2026-04-22 21:19 | 23.69788 | -98.24694 | 34922 ft | 471 kts | 11° |
| 2026-04-22 21:19 | 23.76054 | -98.22540 | 34916 ft | 472 kts | 11° |
| 2026-04-22 21:20 | 23.82316 | -98.20386 | 34925 ft | 472 kts | 11° |
| 2026-04-22 21:20 | 23.88588 | -98.18225 | 34938 ft | 473 kts | 11° |
| 2026-04-22 21:21 | 23.94870 | -98.16060 | 34936 ft | 474 kts | 11° |
| 2026-04-22 21:21 | 24.01159 | -98.13890 | 34927 ft | 474 kts | 11° |
| 2026-04-22 21:22 | 24.07407 | -98.11731 | 34936 ft | 474 kts | 11° |
| 2026-04-22 21:22 | 24.13698 | -98.09554 | 34938 ft | 474 kts | 11° |
| 2026-04-22 21:23 | 24.19990 | -98.07376 | 34945 ft | 474 kts | 11° |
| 2026-04-22 21:23 | 24.26273 | -98.05199 | 34934 ft | 474 kts | 10° |
| 2026-04-22 21:24 | 24.32553 | -98.03025 | 34937 ft | 473 kts | 11° |
| 2026-04-22 21:24 | 24.38823 | -98.00854 | 34943 ft | 472 kts | 10° |
| 2026-04-22 21:25 | 24.45081 | -97.98685 | 34949 ft | 472 kts | 10° |
| 2026-04-22 21:25 | 24.51337 | -97.96514 | 34957 ft | 471 kts | 10° |
| 2026-04-22 21:26 | 24.57588 | -97.94342 | 34946 ft | 471 kts | 10° |
| 2026-04-22 21:26 | 24.63839 | -97.92167 | 34947 ft | 471 kts | 10° |
| 2026-04-22 21:27 | 24.70084 | -97.89992 | 34948 ft | 471 kts | 10° |
| 2026-04-22 21:27 | 24.76319 | -97.87819 | 34953 ft | 470 kts | 10° |
| 2026-04-22 21:28 | 24.82563 | -97.85640 | 34973 ft | 471 kts | 10° |
| 2026-04-22 21:28 | 24.88811 | -97.83458 | 34962 ft | 471 kts | 10° |
| 2026-04-22 21:29 | 24.95064 | -97.81271 | 34962 ft | 472 kts | 10° |
| 2026-04-22 21:29 | 25.01322 | -97.79080 | 34963 ft | 472 kts | 10° |
| 2026-04-22 21:30 | 25.07546 | -97.76898 | 34969 ft | 472 kts | 10° |
| 2026-04-22 21:30 | 25.13848 | -97.74687 | 34991 ft | 472 kts | 11° |
| 2026-04-22 21:31 | 25.20077 | -97.72500 | 34982 ft | 473 kts | 11° |
| 2026-04-22 21:31 | 25.26356 | -97.70291 | 34977 ft | 474 kts | 11° |
| 2026-04-22 21:32 | 25.32639 | -97.68079 | 34985 ft | 474 kts | 11° |
| 2026-04-22 21:32 | 25.38923 | -97.65865 | 34985 ft | 474 kts | 11° |
| 2026-04-22 21:33 | 25.45210 | -97.63655 | 34994 ft | 474 kts | 11° |
| 2026-04-22 21:33 | 25.51502 | -97.61441 | 34984 ft | 475 kts | 11° |
| 2026-04-22 21:34 | 25.57803 | -97.59221 | 34986 ft | 475 kts | 12° |
| 2026-04-22 21:34 | 25.64105 | -97.56995 | 34992 ft | 475 kts | 12° |
| 2026-04-22 21:35 | 25.70407 | -97.54768 | 34981 ft | 475 kts | 12° |
| 2026-04-22 21:35 | 25.76743 | -97.52798 | 34991 ft | 469 kts | 5° |
| 2026-04-22 21:36 | 25.83189 | -97.52085 | 35216 ft | 466 kts | 356° |
| 2026-04-22 21:36 | 25.86424 | -97.51988 | 35621 ft | 463 kts | 356° |
| 2026-04-22 21:36 | 25.89595 | -97.51896 | 35992 ft | 462 kts | 355° |
| 2026-04-22 21:37 | 25.96056 | -97.51699 | 35983 ft | 463 kts | 356° |
| 2026-04-22 21:37 | 26.02443 | -97.51475 | 35968 ft | 457 kts | 356° |
| 2026-04-22 21:38 | 26.08788 | -97.51244 | 35993 ft | 456 kts | 356° |
| 2026-04-22 21:38 | 26.15142 | -97.51013 | 35986 ft | 457 kts | 356° |
| 2026-04-22 21:39 | 26.21506 | -97.50780 | 35972 ft | 458 kts | 356° |
| 2026-04-22 21:39 | 26.27890 | -97.50546 | 35968 ft | 459 kts | 356° |
| 2026-04-22 21:40 | 26.34267 | -97.50312 | 35984 ft | 459 kts | 356° |
| 2026-04-22 21:40 | 26.40650 | -97.50077 | 35988 ft | 459 kts | 356° |
| 2026-04-22 21:41 | 26.47037 | -97.49842 | 35991 ft | 459 kts | 356° |
| 2026-04-22 21:41 | 26.53132 | -97.49618 | 35986 ft | 459 kts | 356° |
| 2026-04-22 21:42 | 26.59518 | -97.49382 | 35989 ft | 459 kts | 356° |
| 2026-04-22 21:42 | 26.65913 | -97.49146 | 35986 ft | 460 kts | 356° |
| 2026-04-22 21:43 | 26.72305 | -97.48910 | 35993 ft | 460 kts | 356° |
| 2026-04-22 21:43 | 26.78712 | -97.48674 | 35987 ft | 461 kts | 356° |
| 2026-04-22 21:44 | 26.85117 | -97.48437 | 35989 ft | 461 kts | 356° |
| 2026-04-22 21:44 | 26.91525 | -97.48199 | 35988 ft | 461 kts | 356° |
| 2026-04-22 21:45 | 26.97941 | -97.47961 | 36009 ft | 461 kts | 356° |
| 2026-04-22 21:45 | 27.04351 | -97.47723 | 35998 ft | 462 kts | 356° |
| 2026-04-22 21:46 | 27.10732 | -97.47486 | 35990 ft | 462 kts | 356° |
| 2026-04-22 21:46 | 27.17148 | -97.47247 | 35991 ft | 462 kts | 356° |
| 2026-04-22 21:47 | 27.23570 | -97.47007 | 35995 ft | 462 kts | 356° |
| 2026-04-22 21:47 | 27.29989 | -97.46768 | 36005 ft | 462 kts | 357° |
| 2026-04-22 21:48 | 27.36414 | -97.46528 | 35996 ft | 462 kts | 357° |
| 2026-04-22 21:48 | 27.42844 | -97.46288 | 36007 ft | 462 kts | 357° |
| 2026-04-22 21:49 | 27.49276 | -97.46047 | 36023 ft | 462 kts | 356° |
| 2026-04-22 21:49 | 27.55714 | -97.45806 | 36009 ft | 464 kts | 356° |
| 2026-04-22 21:50 | 27.62180 | -97.45563 | 35998 ft | 465 kts | 357° |
| 2026-04-22 21:50 | 27.68639 | -97.45320 | 35998 ft | 463 kts | 357° |
| 2026-04-22 21:51 | 27.75072 | -97.45077 | 36006 ft | 462 kts | 356° |
| 2026-04-22 21:52 | 27.84694 | -97.44715 | 36019 ft | 461 kts | 357° |
| 2026-04-22 21:52 | 27.87892 | -97.44321 | 35994 ft | 468 kts | 8° |
| 2026-04-22 21:52 | 27.91010 | -97.43193 | 36010 ft | 474 kts | 18° |
| 2026-04-22 21:52 | 27.93959 | -97.41469 | 36013 ft | 481 kts | 29° |
| 2026-04-22 21:53 | 27.96649 | -97.39186 | 36025 ft | 485 kts | 34° |
| 2026-04-22 21:53 | 28.01887 | -97.34353 | 36018 ft | 487 kts | 34° |
| 2026-04-22 21:54 | 28.07149 | -97.29514 | 36011 ft | 488 kts | 34° |
| 2026-04-22 21:54 | 28.12456 | -97.24718 | 36016 ft | 488 kts | 34° |
| 2026-04-22 21:55 | 28.17785 | -97.19931 | 36009 ft | 489 kts | 33° |
| 2026-04-22 21:55 | 28.23116 | -97.15135 | 36015 ft | 489 kts | 34° |
| 2026-04-22 21:56 | 28.28438 | -97.10333 | 36010 ft | 485 kts | 34° |
| 2026-04-22 21:56 | 28.33608 | -97.05656 | 35713 ft | 466 kts | 34° |
| 2026-04-22 21:56 | 28.36121 | -97.03382 | 35414 ft | 458 kts | 33° |
| 2026-04-22 21:57 | 28.38605 | -97.01136 | 34994 ft | 454 kts | 33° |
| 2026-04-22 21:57 | 28.41074 | -96.98906 | 34526 ft | 452 kts | 33° |
| 2026-04-22 21:57 | 28.43529 | -96.96685 | 34070 ft | 450 kts | 33° |
| 2026-04-22 21:57 | 28.45965 | -96.94477 | 33596 ft | 447 kts | 33° |
| 2026-04-22 21:58 | 28.48354 | -96.92312 | 33135 ft | 443 kts | 33° |
| 2026-04-22 21:58 | 28.50748 | -96.90143 | 32667 ft | 433 kts | 33° |
| 2026-04-22 21:58 | 28.53066 | -96.88039 | 31815 ft | 423 kts | 33° |
| 2026-04-22 21:58 | 28.55355 | -96.85965 | 30809 ft | 419 kts | 33° |
| 2026-04-22 21:59 | 28.57638 | -96.83896 | 30272 ft | 402 kts | 33° |
| 2026-04-22 21:59 | 28.59772 | -96.81954 | 29831 ft | 385 kts | 33° |
| 2026-04-22 21:59 | 28.61135 | -96.80715 | 29541 ft | 374 kts | 32° |
| 2026-04-22 21:59 | 28.63862 | -96.78250 | 29078 ft | 377 kts | 33° |
| 2026-04-22 22:00 | 28.65235 | -96.77010 | 28809 ft | 385 kts | 33° |
| 2026-04-22 22:00 | 28.67382 | -96.75068 | 28432 ft | 405 kts | 33° |
| 2026-04-22 22:00 | 28.69613 | -96.73042 | 28000 ft | 413 kts | 33° |
| 2026-04-22 22:00 | 28.72581 | -96.70328 | 27422 ft | 411 kts | 34° |
| 2026-04-22 22:01 | 28.74806 | -96.68292 | 26984 ft | 409 kts | 34° |
| 2026-04-22 22:01 | 28.77016 | -96.66271 | 26588 ft | 406 kts | 34° |
| 2026-04-22 22:01 | 28.78499 | -96.64917 | 26309 ft | 404 kts | 34° |
| 2026-04-22 22:01 | 28.80689 | -96.62917 | 25918 ft | 402 kts | 34° |
| 2026-04-22 22:02 | 28.82949 | -96.61100 | 25489 ft | 394 kts | 21° |
| 2026-04-22 22:02 | 28.85451 | -96.59931 | 25107 ft | 386 kts | 15° |
| 2026-04-22 22:02 | 28.87977 | -96.58921 | 24706 ft | 384 kts | 15° |
| 2026-04-22 22:02 | 28.90494 | -96.57924 | 24306 ft | 382 kts | 15° |
| 2026-04-22 22:03 | 28.92998 | -96.56917 | 23902 ft | 381 kts | 15° |
| 2026-04-22 22:03 | 28.95495 | -96.55892 | 23492 ft | 381 kts | 16° |
| 2026-04-22 22:03 | 28.97976 | -96.54856 | 23032 ft | 379 kts | 16° |
| 2026-04-22 22:03 | 29.00444 | -96.53816 | 22623 ft | 377 kts | 16° |
| 2026-04-22 22:04 | 29.02894 | -96.52777 | 22222 ft | 375 kts | 17° |
| 2026-04-22 22:04 | 29.05328 | -96.51743 | 21820 ft | 373 kts | 17° |
| 2026-04-22 22:04 | 29.07760 | -96.50708 | 21427 ft | 371 kts | 17° |
| 2026-04-22 22:04 | 29.10173 | -96.49680 | 21024 ft | 370 kts | 17° |
| 2026-04-22 22:05 | 29.12578 | -96.48656 | 20612 ft | 369 kts | 17° |
| 2026-04-22 22:05 | 29.14976 | -96.47634 | 20202 ft | 367 kts | 17° |
| 2026-04-22 22:05 | 29.17364 | -96.46617 | 19822 ft | 365 kts | 17° |
| 2026-04-22 22:05 | 29.19741 | -96.45603 | 19432 ft | 364 kts | 17° |
| 2026-04-22 22:06 | 29.22109 | -96.44592 | 19014 ft | 363 kts | 17° |
| 2026-04-22 22:06 | 29.24442 | -96.43596 | 18613 ft | 362 kts | 17° |
| 2026-04-22 22:06 | 29.26830 | -96.42577 | 18209 ft | 361 kts | 17° |
| 2026-04-22 22:06 | 29.29150 | -96.41585 | 17764 ft | 360 kts | 17° |
| 2026-04-22 22:07 | 29.31472 | -96.40513 | 17350 ft | 359 kts | 21° |
| 2026-04-22 22:07 | 29.33711 | -96.39266 | 16939 ft | 357 kts | 23° |
| 2026-04-22 22:07 | 29.35912 | -96.37975 | 16554 ft | 354 kts | 24° |
| 2026-04-22 22:07 | 29.38098 | -96.36699 | 16167 ft | 351 kts | 23° |
| 2026-04-22 22:08 | 29.40273 | -96.35451 | 15794 ft | 348 kts | 23° |
| 2026-04-22 22:08 | 29.42432 | -96.34228 | 15411 ft | 345 kts | 23° |
| 2026-04-22 22:08 | 29.44572 | -96.33020 | 15042 ft | 342 kts | 23° |
| 2026-04-22 22:08 | 29.46628 | -96.31703 | 14640 ft | 338 kts | 35° |
| 2026-04-22 22:09 | 29.48206 | -96.29719 | 14296 ft | 336 kts | 51° |
| 2026-04-22 22:09 | 29.49565 | -96.27554 | 13952 ft | 333 kts | 50° |
| 2026-04-22 22:09 | 29.50952 | -96.25431 | 13562 ft | 331 kts | 50° |
| 2026-04-22 22:09 | 29.52345 | -96.23338 | 13198 ft | 329 kts | 50° |
| 2026-04-22 22:10 | 29.53717 | -96.21282 | 13071 ft | 319 kts | 50° |
| 2026-04-22 22:10 | 29.55075 | -96.19312 | 12822 ft | 312 kts | 45° |
| 2026-04-22 22:10 | 29.56601 | -96.17555 | 12450 ft | 308 kts | 40° |
| 2026-04-22 22:10 | 29.58201 | -96.15944 | 12073 ft | 304 kts | 33° |
| 2026-04-22 22:11 | 29.59927 | -96.14599 | 11985 ft | 295 kts | 28° |
| 2026-04-22 22:11 | 29.61687 | -96.13360 | 11981 ft | 300 kts | 28° |
| 2026-04-22 22:11 | 29.63498 | -96.12101 | 11982 ft | 307 kts | 28° |
| 2026-04-22 22:11 | 29.65331 | -96.10813 | 11970 ft | 309 kts | 28° |
| 2026-04-22 22:12 | 29.67154 | -96.09515 | 11946 ft | 308 kts | 29° |
| 2026-04-22 22:12 | 29.68968 | -96.08210 | 11966 ft | 307 kts | 29° |
| 2026-04-22 22:12 | 29.70769 | -96.06907 | 11974 ft | 305 kts | 30° |
| 2026-04-22 22:12 | 29.72562 | -96.05603 | 11975 ft | 305 kts | 30° |
| 2026-04-22 22:13 | 29.74349 | -96.04300 | 11983 ft | 304 kts | 30° |
| 2026-04-22 22:13 | 29.76128 | -96.03000 | 11964 ft | 302 kts | 30° |
| 2026-04-22 22:13 | 29.77902 | -96.01704 | 11783 ft | 302 kts | 30° |
| 2026-04-22 22:13 | 29.79673 | -96.00407 | 11564 ft | 301 kts | 30° |
| 2026-04-22 22:14 | 29.81429 | -95.99120 | 11246 ft | 297 kts | 30° |
| 2026-04-22 22:14 | 29.83159 | -95.97853 | 10944 ft | 293 kts | 30° |
| 2026-04-22 22:14 | 29.84870 | -95.96598 | 10630 ft | 289 kts | 30° |
| 2026-04-22 22:14 | 29.86557 | -95.95359 | 10314 ft | 286 kts | 30° |
| 2026-04-22 22:15 | 29.88215 | -95.94142 | 10169 ft | 279 kts | 30° |
| 2026-04-22 22:15 | 29.89843 | -95.92947 | 10032 ft | 277 kts | 30° |
| 2026-04-22 22:15 | 29.91497 | -95.91735 | 9707 ft | 285 kts | 30° |
| 2026-04-22 22:15 | 29.93173 | -95.90504 | 9383 ft | 286 kts | 30° |
| 2026-04-22 22:16 | 29.94844 | -95.89275 | 9042 ft | 283 kts | 30° |
| 2026-04-22 22:16 | 29.96495 | -95.88062 | 8772 ft | 279 kts | 30° |
| 2026-04-22 22:16 | 29.98060 | -95.86805 | 8601 ft | 271 kts | 43° |
| 2026-04-22 22:16 | 29.99024 | -95.84990 | 8426 ft | 266 kts | 74° |
| 2026-04-22 22:17 | 29.99313 | -95.82901 | 8222 ft | 263 kts | 86° |
| 2026-04-22 22:17 | 29.99366 | -95.80832 | 7999 ft | 252 kts | 90° |
| 2026-04-22 22:17 | 29.99364 | -95.78838 | 7745 ft | 248 kts | 90° |
| 2026-04-22 22:17 | 29.99354 | -95.76855 | 7490 ft | 247 kts | 90° |
| 2026-04-22 22:18 | 29.99349 | -95.74901 | 7252 ft | 239 kts | 90° |
| 2026-04-22 22:18 | 29.99347 | -95.73019 | 7062 ft | 231 kts | 91° |
| 2026-04-22 22:18 | 29.99345 | -95.71198 | 6986 ft | 225 kts | 91° |
| 2026-04-22 22:18 | 29.99344 | -95.69396 | 6960 ft | 226 kts | 91° |
| 2026-04-22 22:19 | 29.99343 | -95.67546 | 6917 ft | 234 kts | 90° |
| 2026-04-22 22:19 | 29.99343 | -95.65646 | 6588 ft | 239 kts | 91° |
| 2026-04-22 22:19 | 29.99345 | -95.63740 | 6101 ft | 237 kts | 91° |
| 2026-04-22 22:19 | 29.99345 | -95.61837 | 5533 ft | 236 kts | 91° |
| 2026-04-22 22:20 | 29.99346 | -95.60012 | 4944 ft | 235 kts | 91° |
| 2026-04-22 22:20 | 29.99345 | -95.58129 | 4351 ft | 235 kts | 92° |
| 2026-04-22 22:20 | 29.99344 | -95.56253 | 3719 ft | 233 kts | 92° |
| 2026-04-22 22:20 | 29.99345 | -95.54404 | 3215 ft | 223 kts | 92° |
| 2026-04-22 22:21 | 29.99346 | -95.52693 | 2924 ft | 203 kts | 93° |
| 2026-04-22 22:21 | 29.99347 | -95.51133 | 2677 ft | 186 kts | 92° |
| 2026-04-22 22:21 | 29.99345 | -95.49684 | 2481 ft | 177 kts | 93° |
| 2026-04-22 22:21 | 29.99345 | -95.48280 | 2228 ft | 169 kts | 92° |
| 2026-04-22 22:22 | 29.99344 | -95.46972 | 1998 ft | 155 kts | 93° |
| 2026-04-22 22:22 | 29.99344 | -95.45759 | 1837 ft | 151 kts | 92° |
| 2026-04-22 22:22 | 29.99345 | -95.44545 | 1619 ft | 151 kts | 93° |
| 2026-04-22 22:22 | 29.99345 | -95.43332 | 1418 ft | 149 kts | 92° |
| 2026-04-22 22:23 | 29.99344 | -95.42130 | 1237 ft | 152 kts | 94° |
| 2026-04-22 22:23 | 29.99345 | -95.40909 | 1028 ft | 151 kts | 92° |
| 2026-04-22 22:23 | 29.99344 | -95.39713 | 848 ft | 150 kts | 93° |
| 2026-04-22 22:23 | 29.99344 | -95.38502 | 641 ft | 149 kts | 93° |
| 2026-04-22 22:24 | 29.99347 | -95.37321 | 456 ft | 147 kts | 92° |
| 2026-04-22 22:24 | 29.99347 | -95.36132 | 270 ft | 148 kts | 94° |
| 2026-04-22 22:24 | 29.99344 | -95.34963 | 115 ft | 137 kts | 94° |
| 2026-04-22 22:24 | 29.99343 | -95.34009 | 110 ft | 97 kts | 90° |
| 2026-04-22 22:25 | 29.99343 | -95.33378 | 112 ft | 70 kts | 90° |
| 2026-04-22 22:25 | 29.99344 | -95.32902 | 108 ft | 47 kts | 90° |
| 2026-04-22 22:25 | 29.99343 | -95.32629 | 110 ft | 22 kts | 91° |
| 2026-04-22 22:25 | 29.99239 | -95.32533 | 110 ft | 22 kts | 178° |
| 2026-04-22 22:26 | 29.99098 | -95.32520 | 110 ft | 19 kts | 137° |
| 2026-04-22 22:26 | 29.99081 | -95.32369 | 110 ft | 19 kts | 90° |
| 2026-04-22 22:26 | 29.99080 | -95.32215 | 110 ft | 19 kts | 90° |
| 2026-04-22 22:26 | 29.99080 | -95.32061 | 112 ft | 19 kts | 90° |
| 2026-04-22 22:27 | 29.99081 | -95.31907 | 110 ft | 19 kts | 90° |
| 2026-04-22 22:27 | 29.99079 | -95.31754 | 112 ft | 19 kts | 91° |
| 2026-04-22 22:27 | 29.99081 | -95.31600 | 110 ft | 19 kts | 90° |
| 2026-04-22 22:27 | 29.99081 | -95.31446 | 110 ft | 19 kts | 89° |
| 2026-04-22 22:28 | 29.99106 | -95.31304 | 110 ft | 19 kts | 29° |
| 2026-04-22 22:28 | 29.99239 | -95.31293 | 111 ft | 19 kts | 360° |
| 2026-04-22 22:28 | 29.99373 | -95.31293 | 110 ft | 19 kts | 360° |
| 2026-04-22 22:28 | 29.99506 | -95.31293 | 110 ft | 19 kts | 0° |
| 2026-04-22 22:29 | 29.99640 | -95.31294 | 112 ft | 19 kts | 360° |
| 2026-04-22 22:29 | 29.99773 | -95.31294 | 110 ft | 19 kts | 360° |
| 2026-04-22 22:29 | 29.99841 | -95.31197 | 110 ft | 18 kts | 88° |
| 2026-04-22 22:29 | 29.99821 | -95.31112 | 110 ft | 8 kts | 154° |
| 2026-04-22 22:30 | 29.99763 | -95.31105 | 111 ft | 8 kts | 180° |
| 2026-04-22 22:30 | 29.99757 | -95.31104 | 110 ft | 0 kts | 180° |